sensor_id;sensor_type;location;lat;lon;timestamp;P1;durP1;ratioP1;P2;durP2;ratioP2
70199;SDS011;57587;55.688;37.600;2023-03-05T00:02:08;4.77;;;3.23;;
70199;SDS011;57587;55.688;37.600;2023-03-05T00:04:35;4.22;;;2.20;;
70199;SDS011;57587;55.688;37.600;2023-03-05T00:07:02;3.88;;;2.50;;
70199;SDS011;57587;55.688;37.600;2023-03-05T00:09:30;6.97;;;3.20;;
70199;SDS011;57587;55.688;37.600;2023-03-05T00:12:00;3.85;;;2.97;;
70199;SDS011;57587;55.688;37.600;2023-03-05T00:14:27;5.20;;;3.37;;
70199;SDS011;57587;55.688;37.600;2023-03-05T00:16:54;5.55;;;2.90;;
70199;SDS011;57587;55.688;37.600;2023-03-05T00:19:21;5.38;;;2.72;;
70199;SDS011;57587;55.688;37.600;2023-03-05T00:21:48;5.15;;;2.80;;
70199;SDS011;57587;55.688;37.600;2023-03-05T00:24:16;4.85;;;2.88;;
70199;SDS011;57587;55.688;37.600;2023-03-05T00:26:44;3.93;;;2.80;;
70199;SDS011;57587;55.688;37.600;2023-03-05T00:29:14;3.28;;;2.67;;
70199;SDS011;57587;55.688;37.600;2023-03-05T00:31:44;3.75;;;2.50;;
70199;SDS011;57587;55.688;37.600;2023-03-05T00:34:12;4.93;;;2.72;;
70199;SDS011;57587;55.688;37.600;2023-03-05T00:36:42;5.15;;;2.85;;
70199;SDS011;57587;55.688;37.600;2023-03-05T00:39:11;5.37;;;2.97;;
70199;SDS011;57587;55.688;37.600;2023-03-05T00:41:39;3.72;;;2.70;;
70199;SDS011;57587;55.688;37.600;2023-03-05T00:44:07;4.18;;;2.83;;
70199;SDS011;57587;55.688;37.600;2023-03-05T00:46:34;4.25;;;2.80;;
70199;SDS011;57587;55.688;37.600;2023-03-05T00:49:01;5.00;;;3.10;;
70199;SDS011;57587;55.688;37.600;2023-03-05T00:51:28;3.50;;;2.50;;
70199;SDS011;57587;55.688;37.600;2023-03-05T00:53:55;4.47;;;2.17;;
70199;SDS011;57587;55.688;37.600;2023-03-05T00:56:22;4.38;;;3.08;;
70199;SDS011;57587;55.688;37.600;2023-03-05T00:58:49;9.23;;;2.88;;
70199;SDS011;57587;55.688;37.600;2023-03-05T01:01:17;3.88;;;2.83;;
70199;SDS011;57587;55.688;37.600;2023-03-05T01:03:44;3.23;;;2.70;;
70199;SDS011;57587;55.688;37.600;2023-03-05T01:06:12;4.63;;;3.58;;
70199;SDS011;57587;55.688;37.600;2023-03-05T01:08:42;5.72;;;3.20;;
70199;SDS011;57587;55.688;37.600;2023-03-05T01:11:10;4.32;;;2.47;;
70199;SDS011;57587;55.688;37.600;2023-03-05T01:13:37;3.72;;;2.35;;
70199;SDS011;57587;55.688;37.600;2023-03-05T01:16:05;3.13;;;2.50;;
70199;SDS011;57587;55.688;37.600;2023-03-05T01:18:33;4.32;;;3.60;;
70199;SDS011;57587;55.688;37.600;2023-03-05T01:21:00;5.40;;;3.17;;
70199;SDS011;57587;55.688;37.600;2023-03-05T01:23:27;3.75;;;2.92;;
70199;SDS011;57587;55.688;37.600;2023-03-05T01:25:55;4.07;;;3.40;;
70199;SDS011;57587;55.688;37.600;2023-03-05T01:28:24;10.33;;;5.07;;
70199;SDS011;57587;55.688;37.600;2023-03-05T01:30:51;4.72;;;2.38;;
70199;SDS011;57587;55.688;37.600;2023-03-05T01:33:19;3.30;;;2.55;;
70199;SDS011;57587;55.688;37.600;2023-03-05T01:35:46;3.40;;;3.00;;
70199;SDS011;57587;55.688;37.600;2023-03-05T01:38:15;5.18;;;2.50;;
70199;SDS011;57587;55.688;37.600;2023-03-05T01:40:43;5.63;;;3.13;;
70199;SDS011;57587;55.688;37.600;2023-03-05T01:45:38;5.70;;;3.65;;
70199;SDS011;57587;55.688;37.600;2023-03-05T01:48:25;4.45;;;2.70;;
70199;SDS011;57587;55.688;37.600;2023-03-05T01:50:53;3.63;;;3.05;;
70199;SDS011;57587;55.688;37.600;2023-03-05T01:53:20;3.70;;;2.93;;
70199;SDS011;57587;55.688;37.600;2023-03-05T01:55:47;4.72;;;2.60;;
70199;SDS011;57587;55.688;37.600;2023-03-05T01:58:15;3.20;;;2.88;;
70199;SDS011;57587;55.688;37.600;2023-03-05T02:00:44;5.13;;;2.58;;
70199;SDS011;57587;55.688;37.600;2023-03-05T02:03:14;3.67;;;2.60;;
70199;SDS011;57587;55.688;37.600;2023-03-05T02:05:41;3.47;;;3.13;;
70199;SDS011;57587;55.688;37.600;2023-03-05T02:08:14;5.68;;;3.20;;
70199;SDS011;57587;55.688;37.600;2023-03-05T02:10:44;3.83;;;2.05;;
70199;SDS011;57587;55.688;37.600;2023-03-05T02:13:16;3.80;;;2.33;;
70199;SDS011;57587;55.688;37.600;2023-03-05T02:15:48;3.00;;;2.53;;
70199;SDS011;57587;55.688;37.600;2023-03-05T02:18:15;3.53;;;2.63;;
70199;SDS011;57587;55.688;37.600;2023-03-05T02:20:48;4.10;;;2.63;;
70199;SDS011;57587;55.688;37.600;2023-03-05T02:23:20;3.00;;;2.45;;
70199;SDS011;57587;55.688;37.600;2023-03-05T02:25:48;4.05;;;3.00;;
70199;SDS011;57587;55.688;37.600;2023-03-05T02:28:21;4.10;;;3.10;;
70199;SDS011;57587;55.688;37.600;2023-03-05T02:30:49;4.83;;;2.70;;
70199;SDS011;57587;55.688;37.600;2023-03-05T02:33:17;4.63;;;3.05;;
70199;SDS011;57587;55.688;37.600;2023-03-05T02:35:46;3.92;;;3.10;;
70199;SDS011;57587;55.688;37.600;2023-03-05T02:38:14;5.18;;;2.67;;
70199;SDS011;57587;55.688;37.600;2023-03-05T02:40:44;4.10;;;3.20;;
70199;SDS011;57587;55.688;37.600;2023-03-05T02:43:14;4.70;;;3.23;;
70199;SDS011;57587;55.688;37.600;2023-03-05T02:45:41;5.65;;;3.55;;
70199;SDS011;57587;55.688;37.600;2023-03-05T02:48:08;4.65;;;3.03;;
70199;SDS011;57587;55.688;37.600;2023-03-05T02:50:35;5.47;;;2.70;;
70199;SDS011;57587;55.688;37.600;2023-03-05T02:53:05;6.90;;;3.75;;
70199;SDS011;57587;55.688;37.600;2023-03-05T02:55:32;6.30;;;3.30;;
70199;SDS011;57587;55.688;37.600;2023-03-05T02:58:00;5.03;;;3.00;;
70199;SDS011;57587;55.688;37.600;2023-03-05T03:00:27;4.20;;;3.03;;
70199;SDS011;57587;55.688;37.600;2023-03-05T03:02:54;5.30;;;3.50;;
70199;SDS011;57587;55.688;37.600;2023-03-05T03:05:21;5.75;;;3.55;;
70199;SDS011;57587;55.688;37.600;2023-03-05T03:07:49;5.20;;;2.70;;
70199;SDS011;57587;55.688;37.600;2023-03-05T03:10:16;5.07;;;2.70;;
70199;SDS011;57587;55.688;37.600;2023-03-05T03:12:44;4.38;;;2.63;;
70199;SDS011;57587;55.688;37.600;2023-03-05T03:15:12;3.70;;;2.50;;
70199;SDS011;57587;55.688;37.600;2023-03-05T03:17:42;4.32;;;2.60;;
70199;SDS011;57587;55.688;37.600;2023-03-05T03:20:11;7.80;;;3.67;;
70199;SDS011;57587;55.688;37.600;2023-03-05T03:22:41;3.88;;;2.78;;
70199;SDS011;57587;55.688;37.600;2023-03-05T03:25:10;5.25;;;3.17;;
70199;SDS011;57587;55.688;37.600;2023-03-05T03:27:40;2.67;;;2.22;;
70199;SDS011;57587;55.688;37.600;2023-03-05T03:30:07;4.70;;;2.85;;
70199;SDS011;57587;55.688;37.600;2023-03-05T03:32:35;4.77;;;2.80;;
70199;SDS011;57587;55.688;37.600;2023-03-05T03:35:02;5.07;;;3.45;;
70199;SDS011;57587;55.688;37.600;2023-03-05T03:37:29;5.45;;;2.60;;
70199;SDS011;57587;55.688;37.600;2023-03-05T03:39:56;3.47;;;2.30;;
70199;SDS011;57587;55.688;37.600;2023-03-05T03:42:23;5.90;;;2.75;;
70199;SDS011;57587;55.688;37.600;2023-03-05T03:44:51;4.17;;;2.87;;
70199;SDS011;57587;55.688;37.600;2023-03-05T03:47:18;4.20;;;2.70;;
70199;SDS011;57587;55.688;37.600;2023-03-05T03:49:45;5.82;;;2.92;;
70199;SDS011;57587;55.688;37.600;2023-03-05T03:52:12;4.60;;;2.65;;
70199;SDS011;57587;55.688;37.600;2023-03-05T03:54:39;5.65;;;3.28;;
70199;SDS011;57587;55.688;37.600;2023-03-05T03:57:06;5.40;;;3.40;;
70199;SDS011;57587;55.688;37.600;2023-03-05T03:59:33;4.10;;;3.20;;
70199;SDS011;57587;55.688;37.600;2023-03-05T04:02:00;5.22;;;2.80;;
70199;SDS011;57587;55.688;37.600;2023-03-05T04:04:27;4.07;;;2.92;;
70199;SDS011;57587;55.688;37.600;2023-03-05T04:06:55;4.35;;;3.08;;
70199;SDS011;57587;55.688;37.600;2023-03-05T04:09:23;4.40;;;2.60;;
70199;SDS011;57587;55.688;37.600;2023-03-05T04:11:50;3.58;;;3.13;;
70199;SDS011;57587;55.688;37.600;2023-03-05T04:14:17;5.57;;;3.40;;
70199;SDS011;57587;55.688;37.600;2023-03-05T04:16:44;4.53;;;2.67;;
70199;SDS011;57587;55.688;37.600;2023-03-05T04:19:11;3.88;;;3.10;;
70199;SDS011;57587;55.688;37.600;2023-03-05T04:21:38;4.07;;;3.00;;
70199;SDS011;57587;55.688;37.600;2023-03-05T04:24:05;4.80;;;3.42;;
70199;SDS011;57587;55.688;37.600;2023-03-05T04:26:34;4.45;;;2.80;;
70199;SDS011;57587;55.688;37.600;2023-03-05T04:29:01;5.57;;;3.50;;
70199;SDS011;57587;55.688;37.600;2023-03-05T04:31:28;4.55;;;3.30;;
70199;SDS011;57587;55.688;37.600;2023-03-05T04:33:55;3.80;;;2.90;;
70199;SDS011;57587;55.688;37.600;2023-03-05T04:36:22;4.20;;;3.35;;
70199;SDS011;57587;55.688;37.600;2023-03-05T04:38:49;4.38;;;3.30;;
70199;SDS011;57587;55.688;37.600;2023-03-05T04:41:16;4.63;;;2.80;;
70199;SDS011;57587;55.688;37.600;2023-03-05T04:43:43;3.15;;;2.55;;
70199;SDS011;57587;55.688;37.600;2023-03-05T04:46:10;5.40;;;3.10;;
70199;SDS011;57587;55.688;37.600;2023-03-05T04:48:37;4.82;;;2.70;;
70199;SDS011;57587;55.688;37.600;2023-03-05T04:51:05;3.85;;;2.97;;
70199;SDS011;57587;55.688;37.600;2023-03-05T04:53:31;3.63;;;3.08;;
70199;SDS011;57587;55.688;37.600;2023-03-05T04:55:59;3.75;;;2.70;;
70199;SDS011;57587;55.688;37.600;2023-03-05T04:58:27;4.50;;;2.60;;
70199;SDS011;57587;55.688;37.600;2023-03-05T05:00:59;3.97;;;2.58;;
70199;SDS011;57587;55.688;37.600;2023-03-05T05:03:28;3.95;;;2.45;;
70199;SDS011;57587;55.688;37.600;2023-03-05T05:05:56;5.25;;;3.20;;
70199;SDS011;57587;55.688;37.600;2023-03-05T05:08:25;6.15;;;2.75;;
70199;SDS011;57587;55.688;37.600;2023-03-05T05:10:56;5.80;;;3.17;;
70199;SDS011;57587;55.688;37.600;2023-03-05T05:13:24;3.45;;;2.90;;
70199;SDS011;57587;55.688;37.600;2023-03-05T05:15:51;4.18;;;2.42;;
70199;SDS011;57587;55.688;37.600;2023-03-05T05:18:19;2.80;;;2.35;;
70199;SDS011;57587;55.688;37.600;2023-03-05T05:20:46;6.22;;;2.75;;
70199;SDS011;57587;55.688;37.600;2023-03-05T05:23:14;4.00;;;2.77;;
70199;SDS011;57587;55.688;37.600;2023-03-05T05:25:42;5.60;;;2.90;;
70199;SDS011;57587;55.688;37.600;2023-03-05T05:28:09;4.43;;;2.53;;
70199;SDS011;57587;55.688;37.600;2023-03-05T05:30:38;4.20;;;3.08;;
70199;SDS011;57587;55.688;37.600;2023-03-05T05:33:05;4.28;;;3.13;;
70199;SDS011;57587;55.688;37.600;2023-03-05T05:35:32;3.53;;;2.30;;
70199;SDS011;57587;55.688;37.600;2023-03-05T05:38:00;3.80;;;2.45;;
70199;SDS011;57587;55.688;37.600;2023-03-05T05:40:27;3.53;;;2.17;;
70199;SDS011;57587;55.688;37.600;2023-03-05T05:42:54;6.20;;;2.60;;
70199;SDS011;57587;55.688;37.600;2023-03-05T05:45:21;3.53;;;2.72;;
70199;SDS011;57587;55.688;37.600;2023-03-05T05:47:49;4.50;;;3.20;;
70199;SDS011;57587;55.688;37.600;2023-03-05T05:50:17;3.80;;;2.55;;
70199;SDS011;57587;55.688;37.600;2023-03-05T05:52:45;3.35;;;2.60;;
70199;SDS011;57587;55.688;37.600;2023-03-05T05:55:12;3.47;;;2.72;;
70199;SDS011;57587;55.688;37.600;2023-03-05T05:57:39;5.07;;;3.38;;
70199;SDS011;57587;55.688;37.600;2023-03-05T06:00:08;3.50;;;3.17;;
70199;SDS011;57587;55.688;37.600;2023-03-05T06:02:40;3.35;;;2.67;;
70199;SDS011;57587;55.688;37.600;2023-03-05T06:05:10;6.13;;;3.03;;
70199;SDS011;57587;55.688;37.600;2023-03-05T06:07:38;3.50;;;2.20;;
70199;SDS011;57587;55.688;37.600;2023-03-05T06:10:05;3.78;;;3.38;;
70199;SDS011;57587;55.688;37.600;2023-03-05T06:12:33;4.43;;;2.73;;
70199;SDS011;57587;55.688;37.600;2023-03-05T06:15:00;4.78;;;3.00;;
70199;SDS011;57587;55.688;37.600;2023-03-05T06:17:29;4.38;;;2.97;;
70199;SDS011;57587;55.688;37.600;2023-03-05T06:19:57;3.80;;;2.78;;
70199;SDS011;57587;55.688;37.600;2023-03-05T06:22:24;3.70;;;2.78;;
70199;SDS011;57587;55.688;37.600;2023-03-05T06:24:51;5.83;;;3.03;;
70199;SDS011;57587;55.688;37.600;2023-03-05T06:27:18;4.13;;;3.30;;
70199;SDS011;57587;55.688;37.600;2023-03-05T06:29:45;4.82;;;3.25;;
70199;SDS011;57587;55.688;37.600;2023-03-05T06:32:12;3.88;;;2.40;;
70199;SDS011;57587;55.688;37.600;2023-03-05T06:34:40;3.75;;;2.58;;
70199;SDS011;57587;55.688;37.600;2023-03-05T06:37:06;3.77;;;2.60;;
70199;SDS011;57587;55.688;37.600;2023-03-05T06:39:33;6.57;;;3.47;;
70199;SDS011;57587;55.688;37.600;2023-03-05T06:42:01;4.22;;;3.10;;
70199;SDS011;57587;55.688;37.600;2023-03-05T06:44:28;5.15;;;2.50;;
70199;SDS011;57587;55.688;37.600;2023-03-05T06:46:55;7.63;;;3.90;;
70199;SDS011;57587;55.688;37.600;2023-03-05T06:49:22;4.00;;;2.80;;
70199;SDS011;57587;55.688;37.600;2023-03-05T06:51:49;5.47;;;3.28;;
70199;SDS011;57587;55.688;37.600;2023-03-05T06:54:17;3.58;;;2.92;;
70199;SDS011;57587;55.688;37.600;2023-03-05T06:56:45;6.25;;;3.40;;
70199;SDS011;57587;55.688;37.600;2023-03-05T06:59:13;5.65;;;4.57;;
70199;SDS011;57587;55.688;37.600;2023-03-05T07:01:42;5.10;;;3.73;;
70199;SDS011;57587;55.688;37.600;2023-03-05T07:04:10;4.70;;;3.67;;
70199;SDS011;57587;55.688;37.600;2023-03-05T07:06:38;3.88;;;3.47;;
70199;SDS011;57587;55.688;37.600;2023-03-05T07:09:06;3.95;;;2.80;;
70199;SDS011;57587;55.688;37.600;2023-03-05T07:11:35;4.35;;;2.90;;
70199;SDS011;57587;55.688;37.600;2023-03-05T07:14:02;5.37;;;3.27;;
70199;SDS011;57587;55.688;37.600;2023-03-05T07:16:30;5.20;;;3.08;;
70199;SDS011;57587;55.688;37.600;2023-03-05T07:18:59;5.80;;;3.03;;
70199;SDS011;57587;55.688;37.600;2023-03-05T07:21:31;5.45;;;3.13;;
70199;SDS011;57587;55.688;37.600;2023-03-05T07:24:00;10.48;;;3.38;;
70199;SDS011;57587;55.688;37.600;2023-03-05T07:26:28;5.50;;;3.33;;
70199;SDS011;57587;55.688;37.600;2023-03-05T07:28:56;4.40;;;3.05;;
70199;SDS011;57587;55.688;37.600;2023-03-05T07:31:24;5.78;;;3.63;;
70199;SDS011;57587;55.688;37.600;2023-03-05T07:33:57;4.80;;;3.40;;
70199;SDS011;57587;55.688;37.600;2023-03-05T07:36:25;5.78;;;3.25;;
70199;SDS011;57587;55.688;37.600;2023-03-05T07:38:53;6.13;;;3.70;;
70199;SDS011;57587;55.688;37.600;2023-03-05T07:41:20;4.28;;;3.40;;
70199;SDS011;57587;55.688;37.600;2023-03-05T07:43:50;5.50;;;2.97;;
70199;SDS011;57587;55.688;37.600;2023-03-05T07:46:20;7.05;;;3.58;;
70199;SDS011;57587;55.688;37.600;2023-03-05T07:48:49;7.22;;;3.80;;
70199;SDS011;57587;55.688;37.600;2023-03-05T07:51:17;6.37;;;3.70;;
70199;SDS011;57587;55.688;37.600;2023-03-05T07:53:46;5.28;;;3.35;;
70199;SDS011;57587;55.688;37.600;2023-03-05T07:56:25;5.32;;;3.60;;
70199;SDS011;57587;55.688;37.600;2023-03-05T07:59:03;5.60;;;3.65;;
70199;SDS011;57587;55.688;37.600;2023-03-05T08:01:32;6.75;;;3.72;;
70199;SDS011;57587;55.688;37.600;2023-03-05T08:04:01;6.03;;;3.80;;
70199;SDS011;57587;55.688;37.600;2023-03-05T08:06:29;6.78;;;3.97;;
70199;SDS011;57587;55.688;37.600;2023-03-05T08:08:57;8.82;;;4.03;;
70199;SDS011;57587;55.688;37.600;2023-03-05T08:11:25;7.65;;;4.93;;
70199;SDS011;57587;55.688;37.600;2023-03-05T08:13:54;8.60;;;3.80;;
70199;SDS011;57587;55.688;37.600;2023-03-05T08:19:18;6.28;;;4.07;;
70199;SDS011;57587;55.688;37.600;2023-03-05T08:21:45;7.53;;;4.43;;
70199;SDS011;57587;55.688;37.600;2023-03-05T08:24:13;5.93;;;4.47;;
70199;SDS011;57587;55.688;37.600;2023-03-05T08:26:40;6.90;;;4.68;;
70199;SDS011;57587;55.688;37.600;2023-03-05T08:29:08;7.10;;;3.87;;
70199;SDS011;57587;55.688;37.600;2023-03-05T08:31:36;6.95;;;4.45;;
70199;SDS011;57587;55.688;37.600;2023-03-05T08:34:04;9.60;;;5.53;;
70199;SDS011;57587;55.688;37.600;2023-03-05T08:36:32;7.07;;;5.03;;
70199;SDS011;57587;55.688;37.600;2023-03-05T08:38:59;11.80;;;5.38;;
70199;SDS011;57587;55.688;37.600;2023-03-05T08:41:26;6.77;;;4.50;;
70199;SDS011;57587;55.688;37.600;2023-03-05T08:43:54;6.70;;;4.40;;
70199;SDS011;57587;55.688;37.600;2023-03-05T08:46:21;7.65;;;5.15;;
70199;SDS011;57587;55.688;37.600;2023-03-05T08:48:48;8.30;;;4.78;;
70199;SDS011;57587;55.688;37.600;2023-03-05T08:51:16;7.97;;;4.40;;
70199;SDS011;57587;55.688;37.600;2023-03-05T08:53:45;10.07;;;5.50;;
70199;SDS011;57587;55.688;37.600;2023-03-05T08:56:13;8.80;;;5.35;;
70199;SDS011;57587;55.688;37.600;2023-03-05T08:58:41;10.20;;;5.43;;
70199;SDS011;57587;55.688;37.600;2023-03-05T09:01:09;7.07;;;4.90;;
70199;SDS011;57587;55.688;37.600;2023-03-05T09:03:36;8.27;;;5.18;;
70199;SDS011;57587;55.688;37.600;2023-03-05T09:06:05;12.00;;;6.03;;
70199;SDS011;57587;55.688;37.600;2023-03-05T09:08:34;7.90;;;4.97;;
70199;SDS011;57587;55.688;37.600;2023-03-05T09:11:02;7.80;;;4.22;;
70199;SDS011;57587;55.688;37.600;2023-03-05T09:13:31;7.63;;;4.85;;
70199;SDS011;57587;55.688;37.600;2023-03-05T09:16:00;8.50;;;5.43;;
70199;SDS011;57587;55.688;37.600;2023-03-05T09:18:32;7.87;;;5.03;;
70199;SDS011;57587;55.688;37.600;2023-03-05T09:21:03;7.57;;;5.00;;
70199;SDS011;57587;55.688;37.600;2023-03-05T09:23:35;8.85;;;4.75;;
70199;SDS011;57587;55.688;37.600;2023-03-05T09:26:04;6.45;;;4.93;;
70199;SDS011;57587;55.688;37.600;2023-03-05T09:28:32;8.90;;;5.32;;
70199;SDS011;57587;55.688;37.600;2023-03-05T09:31:03;7.80;;;5.07;;
70199;SDS011;57587;55.688;37.600;2023-03-05T09:33:31;9.20;;;4.68;;
70199;SDS011;57587;55.688;37.600;2023-03-05T09:35:59;8.32;;;4.97;;
70199;SDS011;57587;55.688;37.600;2023-03-05T09:38:26;9.38;;;5.28;;
70199;SDS011;57587;55.688;37.600;2023-03-05T09:43:33;10.27;;;5.77;;
70199;SDS011;57587;55.688;37.600;2023-03-05T09:51:40;8.52;;;6.32;;
70199;SDS011;57587;55.688;37.600;2023-03-05T09:54:13;15.07;;;6.25;;
70199;SDS011;57587;55.688;37.600;2023-03-05T09:56:47;13.33;;;6.30;;
70199;SDS011;57587;55.688;37.600;2023-03-05T09:59:30;10.50;;;6.75;;
70199;SDS011;57587;55.688;37.600;2023-03-05T10:02:11;9.23;;;5.30;;
70199;SDS011;57587;55.688;37.600;2023-03-05T10:07:52;10.80;;;5.93;;
70199;SDS011;57587;55.688;37.600;2023-03-05T10:10:25;10.37;;;6.40;;
70199;SDS011;57587;55.688;37.600;2023-03-05T10:13:04;10.63;;;6.00;;
70199;SDS011;57587;55.688;37.600;2023-03-05T10:15:53;9.75;;;5.95;;
70199;SDS011;57587;55.688;37.600;2023-03-05T10:21:20;8.63;;;6.03;;
70199;SDS011;57587;55.688;37.600;2023-03-05T10:27:19;11.43;;;5.68;;
70199;SDS011;57587;55.688;37.600;2023-03-05T10:41:02;10.68;;;6.07;;
70199;SDS011;57587;55.688;37.600;2023-03-05T10:43:46;13.05;;;6.10;;
70199;SDS011;57587;55.688;37.600;2023-03-05T10:46:16;9.10;;;6.15;;
70199;SDS011;57587;55.688;37.600;2023-03-05T10:48:53;10.93;;;6.90;;
70199;SDS011;57587;55.688;37.600;2023-03-05T10:57:01;12.43;;;7.25;;
70199;SDS011;57587;55.688;37.600;2023-03-05T10:59:46;10.40;;;6.63;;
70199;SDS011;57587;55.688;37.600;2023-03-05T11:02:14;14.13;;;8.65;;
70199;SDS011;57587;55.688;37.600;2023-03-05T11:04:42;14.30;;;8.67;;
70199;SDS011;57587;55.688;37.600;2023-03-05T11:09:43;11.65;;;7.40;;
70199;SDS011;57587;55.688;37.600;2023-03-05T11:12:44;9.95;;;6.78;;
70199;SDS011;57587;55.688;37.600;2023-03-05T11:23:16;11.10;;;7.10;;
70199;SDS011;57587;55.688;37.600;2023-03-05T11:28:29;12.40;;;6.80;;
70199;SDS011;57587;55.688;37.600;2023-03-05T11:31:00;11.17;;;7.00;;
70199;SDS011;57587;55.688;37.600;2023-03-05T11:39:19;12.65;;;6.43;;
70199;SDS011;57587;55.688;37.600;2023-03-05T11:41:49;11.27;;;7.70;;
70199;SDS011;57587;55.688;37.600;2023-03-05T11:46:50;10.68;;;7.53;;
70199;SDS011;57587;55.688;37.600;2023-03-05T11:49:20;8.65;;;6.63;;
70199;SDS011;57587;55.688;37.600;2023-03-05T12:00:34;13.45;;;9.25;;
70199;SDS011;57587;55.688;37.600;2023-03-05T12:03:09;12.23;;;7.90;;
70199;SDS011;57587;55.688;37.600;2023-03-05T12:05:44;12.23;;;7.95;;
70199;SDS011;57587;55.688;37.600;2023-03-05T12:08:17;10.68;;;7.40;;
70199;SDS011;57587;55.688;37.600;2023-03-05T12:10:51;12.37;;;8.27;;
70199;SDS011;57587;55.688;37.600;2023-03-05T12:16:02;10.05;;;6.82;;
70199;SDS011;57587;55.688;37.600;2023-03-05T12:29:46;10.15;;;6.75;;
70199;SDS011;57587;55.688;37.600;2023-03-05T12:52:59;9.68;;;6.30;;
70199;SDS011;57587;55.688;37.600;2023-03-05T13:03:28;12.23;;;6.97;;
70199;SDS011;57587;55.688;37.600;2023-03-05T13:05:59;8.98;;;6.53;;
70199;SDS011;57587;55.688;37.600;2023-03-05T13:08:30;9.02;;;7.03;;
70199;SDS011;57587;55.688;37.600;2023-03-05T13:11:04;9.40;;;7.07;;
70199;SDS011;57587;55.688;37.600;2023-03-05T13:13:36;8.77;;;6.90;;
70199;SDS011;57587;55.688;37.600;2023-03-05T13:16:17;9.17;;;6.43;;
70199;SDS011;57587;55.688;37.600;2023-03-05T13:18:48;8.70;;;6.20;;
70199;SDS011;57587;55.688;37.600;2023-03-05T13:21:16;7.97;;;5.82;;
70199;SDS011;57587;55.688;37.600;2023-03-05T13:26:41;8.55;;;6.00;;
70199;SDS011;57587;55.688;37.600;2023-03-05T13:37:14;7.90;;;5.47;;
70199;SDS011;57587;55.688;37.600;2023-03-05T13:42:26;10.20;;;5.97;;
70199;SDS011;57587;55.688;37.600;2023-03-05T13:45:41;9.95;;;6.13;;
70199;SDS011;57587;55.688;37.600;2023-03-05T13:47:52;13.32;;;9.20;;
70199;SDS011;57587;55.688;37.600;2023-03-05T13:50:29;11.93;;;6.82;;
70199;SDS011;57587;55.688;37.600;2023-03-05T13:55:40;9.30;;;6.30;;
70199;SDS011;57587;55.688;37.600;2023-03-05T13:58:39;8.50;;;5.65;;
70199;SDS011;57587;55.688;37.600;2023-03-05T14:01:28;9.15;;;6.43;;
70199;SDS011;57587;55.688;37.600;2023-03-05T14:04:05;9.10;;;5.85;;
70199;SDS011;57587;55.688;37.600;2023-03-05T14:06:41;10.15;;;6.43;;
70199;SDS011;57587;55.688;37.600;2023-03-05T14:09:21;8.63;;;5.80;;
70199;SDS011;57587;55.688;37.600;2023-03-05T14:14:35;7.90;;;5.18;;
70199;SDS011;57587;55.688;37.600;2023-03-05T14:22:56;13.73;;;8.33;;
70199;SDS011;57587;55.688;37.600;2023-03-05T14:28:03;8.02;;;5.80;;
70199;SDS011;57587;55.688;37.600;2023-03-05T14:30:32;11.15;;;6.20;;
70199;SDS011;57587;55.688;37.600;2023-03-05T14:33:02;11.23;;;6.10;;
70199;SDS011;57587;55.688;37.600;2023-03-05T14:35:29;9.00;;;5.80;;
70199;SDS011;57587;55.688;37.600;2023-03-05T14:37:57;10.88;;;5.65;;
70199;SDS011;57587;55.688;37.600;2023-03-05T14:40:28;8.40;;;5.50;;
70199;SDS011;57587;55.688;37.600;2023-03-05T14:45:27;8.20;;;5.47;;
70199;SDS011;57587;55.688;37.600;2023-03-05T14:47:58;8.43;;;5.57;;
70199;SDS011;57587;55.688;37.600;2023-03-05T14:50:28;7.93;;;5.47;;
70199;SDS011;57587;55.688;37.600;2023-03-05T14:52:56;9.30;;;5.65;;
70199;SDS011;57587;55.688;37.600;2023-03-05T14:55:26;9.50;;;5.80;;
70199;SDS011;57587;55.688;37.600;2023-03-05T14:58:02;9.18;;;6.13;;
70199;SDS011;57587;55.688;37.600;2023-03-05T15:00:32;9.83;;;5.53;;
70199;SDS011;57587;55.688;37.600;2023-03-05T15:02:59;11.55;;;6.20;;
70199;SDS011;57587;55.688;37.600;2023-03-05T15:05:27;10.20;;;6.07;;
70199;SDS011;57587;55.688;37.600;2023-03-05T15:07:54;9.00;;;5.47;;
70199;SDS011;57587;55.688;37.600;2023-03-05T15:10:23;7.82;;;5.53;;
70199;SDS011;57587;55.688;37.600;2023-03-05T15:12:51;9.43;;;5.50;;
70199;SDS011;57587;55.688;37.600;2023-03-05T15:15:19;9.13;;;5.88;;
70199;SDS011;57587;55.688;37.600;2023-03-05T15:17:47;8.75;;;6.43;;
70199;SDS011;57587;55.688;37.600;2023-03-05T15:20:21;7.97;;;5.10;;
70199;SDS011;57587;55.688;37.600;2023-03-05T15:22:52;7.40;;;4.93;;
70199;SDS011;57587;55.688;37.600;2023-03-05T15:25:20;6.73;;;4.50;;
70199;SDS011;57587;55.688;37.600;2023-03-05T15:27:49;6.32;;;4.63;;
70199;SDS011;57587;55.688;37.600;2023-03-05T15:30:20;7.22;;;4.90;;
70199;SDS011;57587;55.688;37.600;2023-03-05T15:32:55;9.32;;;5.13;;
70199;SDS011;57587;55.688;37.600;2023-03-05T15:35:24;6.97;;;4.95;;
70199;SDS011;57587;55.688;37.600;2023-03-05T15:37:51;7.60;;;5.03;;
70199;SDS011;57587;55.688;37.600;2023-03-05T15:40:18;7.60;;;5.15;;
70199;SDS011;57587;55.688;37.600;2023-03-05T15:42:46;7.85;;;5.05;;
70199;SDS011;57587;55.688;37.600;2023-03-05T15:45:14;6.40;;;4.88;;
70199;SDS011;57587;55.688;37.600;2023-03-05T15:47:41;8.63;;;5.05;;
70199;SDS011;57587;55.688;37.600;2023-03-05T15:50:08;9.13;;;5.27;;
70199;SDS011;57587;55.688;37.600;2023-03-05T15:52:36;7.95;;;5.13;;
70199;SDS011;57587;55.688;37.600;2023-03-05T15:55:03;7.82;;;5.15;;
70199;SDS011;57587;55.688;37.600;2023-03-05T15:57:30;6.93;;;4.72;;
70199;SDS011;57587;55.688;37.600;2023-03-05T16:00:03;7.68;;;4.70;;
70199;SDS011;57587;55.688;37.600;2023-03-05T16:02:35;7.83;;;5.33;;
70199;SDS011;57587;55.688;37.600;2023-03-05T16:05:03;7.45;;;4.88;;
70199;SDS011;57587;55.688;37.600;2023-03-05T16:07:32;7.05;;;4.70;;
70199;SDS011;57587;55.688;37.600;2023-03-05T16:10:02;6.38;;;4.40;;
70199;SDS011;57587;55.688;37.600;2023-03-05T16:12:30;7.05;;;5.20;;
70199;SDS011;57587;55.688;37.600;2023-03-05T16:15:07;8.70;;;4.77;;
70199;SDS011;57587;55.688;37.600;2023-03-05T16:17:35;8.52;;;5.05;;
70199;SDS011;57587;55.688;37.600;2023-03-05T16:20:05;6.95;;;4.80;;
70199;SDS011;57587;55.688;37.600;2023-03-05T16:22:32;7.03;;;4.63;;
70199;SDS011;57587;55.688;37.600;2023-03-05T16:24:59;9.95;;;4.95;;
70199;SDS011;57587;55.688;37.600;2023-03-05T16:27:28;7.70;;;4.83;;
70199;SDS011;57587;55.688;37.600;2023-03-05T16:29:56;8.05;;;4.57;;
70199;SDS011;57587;55.688;37.600;2023-03-05T16:32:23;8.10;;;5.43;;
70199;SDS011;57587;55.688;37.600;2023-03-05T16:34:51;9.30;;;5.55;;
70199;SDS011;57587;55.688;37.600;2023-03-05T16:37:19;7.45;;;5.30;;
70199;SDS011;57587;55.688;37.600;2023-03-05T16:39:47;8.17;;;5.87;;
70199;SDS011;57587;55.688;37.600;2023-03-05T16:42:15;7.30;;;4.82;;
70199;SDS011;57587;55.688;37.600;2023-03-05T16:44:42;9.68;;;5.00;;
70199;SDS011;57587;55.688;37.600;2023-03-05T16:47:10;8.43;;;5.07;;
70199;SDS011;57587;55.688;37.600;2023-03-05T16:49:38;10.55;;;5.45;;
70199;SDS011;57587;55.688;37.600;2023-03-05T16:52:06;24.03;;;14.17;;
70199;SDS011;57587;55.688;37.600;2023-03-05T16:54:44;11.68;;;6.18;;
70199;SDS011;57587;55.688;37.600;2023-03-05T16:57:11;10.75;;;6.05;;
70199;SDS011;57587;55.688;37.600;2023-03-05T16:59:39;10.23;;;6.28;;
70199;SDS011;57587;55.688;37.600;2023-03-05T17:02:06;9.10;;;6.70;;
70199;SDS011;57587;55.688;37.600;2023-03-05T17:04:36;9.37;;;6.00;;
70199;SDS011;57587;55.688;37.600;2023-03-05T17:07:04;9.60;;;6.05;;
70199;SDS011;57587;55.688;37.600;2023-03-05T17:09:31;9.40;;;5.93;;